Time;durP1;ratioP1;P1;durP2;ratioP2;P2;SDS_P1;SDS_P2;PMS_P1;PMS_P2;Temp;Humidity;BMP_temperature;BMP_pressure;BME280_temperature;BME280_humidity;BME280_pressure;Samples;Min_cycle;Max_cycle;Signal;HPM_P1;HPM_P2
2023/05/05 00:00:20;;;;;;;20.42;15.02;;;17.00;99.90;;;;;;5012362;28;20037;-83
2023/05/05 00:02:46;;;;;;;21.35;16.05;;;17.00;99.90;;;;;;4995502;28;20545;-84
2023/05/05 00:05:12;;;;;;;21.35;15.40;;;17.80;99.90;;;;;;4996432;28;20034;-84
2023/05/05 00:07:38;;;;;;;16.92;14.90;;;17.10;99.90;;;;;;4995916;28;20060;-84
2023/05/05 00:10:04;;;;;;;17.25;13.50;;;16.90;99.90;;;;;;4995718;28;20035;-84
2023/05/05 00:12:30;;;;;;;16.52;13.57;;;16.90;99.90;;;;;;4996182;28;20034;-84
2023/05/05 00:14:55;;;;;;;17.10;13.43;;;16.90;99.90;;;;;;4996584;28;20052;-84
2023/05/05 00:17:21;;;;;;;19.10;13.60;;;17.30;99.90;;;;;;5008697;28;20126;-84
2023/05/05 00:19:47;;;;;;;14.13;12.32;;;16.90;99.90;;;;;;5003832;28;20030;-84
2023/05/05 00:22:13;;;;;;;14.10;12.60;;;16.80;99.90;;;;;;5015112;28;20141;-84
2023/05/05 00:24:38;;;;;;;12.02;10.80;;;17.20;99.90;;;;;;5015488;28;20018;-84
2023/05/05 00:27:04;;;;;;;12.35;10.80;;;16.80;99.90;;;;;;5015479;28;20026;-84
2023/05/05 00:29:30;;;;;;;11.52;9.05;;;16.80;99.90;;;;;;5014868;28;20064;-85
2023/05/05 00:31:56;;;;;;;10.73;8.63;;;16.80;99.90;;;;;;5014691;28;20064;-83
2023/05/05 00:34:21;;;;;;;8.18;7.30;;;16.80;99.90;;;;;;5015387;28;20038;-84
2023/05/05 00:36:47;;;;;;;8.88;6.88;;;16.70;99.90;;;;;;5008502;28;20031;-84
2023/05/05 00:39:13;;;;;;;6.82;5.90;;;17.60;99.90;;;;;;5008287;28;20021;-84
2023/05/05 00:41:39;;;;;;;6.80;6.20;;;16.70;99.90;;;;;;5014928;28;20038;-84
2023/05/05 00:44:05;;;;;;;7.70;6.90;;;16.70;99.90;;;;;;5002917;28;20543;-84
2023/05/05 00:46:32;;;;;;;10.38;7.03;;;17.30;99.90;;;;;;4995702;28;20109;-82
2023/05/05 00:48:59;;;;;;;8.15;7.47;;;16.70;99.90;;;;;;5003233;28;20030;-84
2023/05/05 00:51:26;;;;;;;7.82;7.13;;;16.70;99.90;;;;;;5014556;28;20091;-84
2023/05/05 00:53:52;;;;;;;7.65;6.95;;;16.70;99.90;;;;;;5014755;28;20038;-83
2023/05/05 00:56:19;;;;;;;7.60;7.00;;;16.70;99.90;;;;;;5014852;28;20470;-84
2023/05/05 00:58:45;;;;;;;7.90;7.18;;;16.70;99.90;;;;;;5009867;28;20022;-84
2023/05/05 01:01:11;;;;;;;8.02;7.20;;;16.70;99.90;;;;;;5000488;28;20108;-84
2023/05/05 01:03:38;;;;;;;7.25;6.55;;;16.80;99.90;;;;;;5009183;28;20501;-84
2023/05/05 01:06:31;;;;;;;7.50;6.32;;;16.70;99.90;;;;;;4996724;28;20026;-84
2023/05/05 01:09:47;;;;;;;7.85;6.53;;;16.70;99.90;;;;;;5001494;28;20029;-84
2023/05/05 01:12:32;;;;;;;7.70;7.00;;;16.70;99.90;;;;;;4961064;28;20084;-84
2023/05/05 01:15:25;;;;;;;7.53;6.78;;;16.80;99.90;;;;;;4994960;28;20037;-84
2023/05/05 01:18:10;;;;;;;7.47;6.30;;;16.70;99.90;;;;;;4994797;28;20066;-84
2023/05/05 01:21:02;;;;;;;6.63;6.03;;;16.70;99.90;;;;;;5007864;28;20025;-84
2023/05/05 01:24:06;;;;;;;8.00;7.18;;;16.70;99.90;;;;;;4998711;28;20500;-84
2023/05/05 01:26:51;;;;;;;7.78;7.00;;;16.70;99.90;;;;;;5013727;28;20030;-84
2023/05/05 01:29:47;;;;;;;6.78;6.18;;;16.70;99.90;;;;;;5014024;28;20034;-83
2023/05/05 01:32:15;;;;;;;7.28;6.57;;;16.70;99.90;;;;;;5009997;28;20027;-83
2023/05/05 01:35:00;;;;;;;7.78;6.70;;;16.70;99.90;;;;;;4994286;28;20475;-84
2023/05/05 01:37:36;;;;;;;6.18;5.60;;;16.80;99.90;;;;;;4994539;28;20040;-82
2023/05/05 01:40:05;;;;;;;8.13;6.38;;;16.60;99.90;;;;;;4995650;28;20050;-85
2023/05/05 01:42:32;;;;;;;8.40;5.47;;;16.60;99.90;;;;;;5010746;28;20104;-84
2023/05/05 01:45:00;;;;;;;7.95;5.65;;;16.60;99.90;;;;;;5011037;28;20030;-84
2023/05/05 01:47:27;;;;;;;6.07;5.50;;;16.80;99.90;;;;;;4993919;28;20034;-84
2023/05/05 01:49:53;;;;;;;6.20;5.68;;;16.70;99.90;;;;;;5009421;28;20026;-84
2023/05/05 01:52:20;;;;;;;8.77;5.45;;;16.60;99.90;;;;;;5013909;28;20046;-84
2023/05/05 01:54:47;;;;;;;7.53;5.03;;;16.50;99.90;;;;;;5012124;28;20069;-84
2023/05/05 01:57:14;;;;;;;4.85;4.45;;;16.50;99.90;;;;;;4994046;28;20520;-84
2023/05/05 01:59:39;;;;;;;4.75;4.40;;;16.50;99.90;;;;;;4994013;28;20030;-84
2023/05/05 02:02:07;;;;;;;4.38;3.97;;;16.50;99.90;;;;;;5003016;28;20055;-84
2023/05/05 02:04:38;;;;;;;4.47;4.07;;;16.50;99.90;;;;;;5004182;28;20025;-84
2023/05/05 02:07:04;;;;;;;4.15;3.83;;;17.00;99.90;;;;;;4998222;28;20044;-84
2023/05/05 02:09:31;;;;;;;4.28;3.75;;;16.60;99.90;;;;;;5006605;28;20044;-84
2023/05/05 02:11:58;;;;;;;7.00;3.58;;;16.50;99.90;;;;;;5013679;28;20033;-85
2023/05/05 02:14:26;;;;;;;5.57;3.20;;;16.40;99.90;;;;;;5012855;28;20532;-84
2023/05/05 02:16:53;;;;;;;9.15;3.47;;;16.50;99.90;;;;;;5013153;28;20048;-84
2023/05/05 02:19:23;;;;;;;3.45;3.08;;;16.40;99.90;;;;;;5001533;28;20026;-84
2023/05/05 02:21:48;;;;;;;2.95;2.75;;;16.50;99.90;;;;;;4992417;28;20040;-84
2023/05/05 02:24:14;;;;;;;3.25;2.95;;;16.50;99.90;;;;;;5000684;28;20533;-84
2023/05/05 02:26:44;;;;;;;3.17;2.85;;;16.40;99.90;;;;;;5012945;28;20478;-85
2023/05/05 02:29:16;;;;;;;3.33;2.67;;;16.40;99.90;;;;;;4994608;28;20474;-84
2023/05/05 02:31:45;;;;;;;4.10;2.67;;;16.40;99.90;;;;;;4999989;28;20037;-84
2023/05/05 02:34:15;;;;;;;3.58;2.63;;;16.40;99.90;;;;;;5013108;28;20030;-84
2023/05/05 02:36:43;;;;;;;3.03;2.33;;;16.40;99.90;;;;;;5012015;28;20087;-84
2023/05/05 02:39:17;;;;;;;2.63;2.40;;;16.30;99.90;;;;;;5013322;28;20030;-84
2023/05/05 02:41:47;;;;;;;2.70;2.47;;;16.30;99.90;;;;;;4995221;28;20575;-84
2023/05/05 02:44:14;;;;;;;4.30;2.38;;;16.40;99.90;;;;;;4996068;28;20035;-84
2023/05/05 02:46:41;;;;;;;4.45;2.50;;;16.30;99.90;;;;;;4996892;28;20497;-84
2023/05/05 02:49:06;;;;;;;2.30;2.10;;;16.20;99.90;;;;;;5005545;28;20030;-84
2023/05/05 02:51:32;;;;;;;4.82;2.30;;;16.30;99.90;;;;;;5001412;28;20386;-84
2023/05/05 02:53:58;;;;;;;4.20;2.30;;;16.80;99.90;;;;;;5001131;28;20018;-85
2023/05/05 02:56:47;;;;;;;3.20;2.00;;;17.10;99.90;;;;;;5013103;28;20099;-84
2023/05/05 02:59:25;;;;;;;5.93;2.00;;;16.10;99.90;;;;;;5013001;28;20045;-85
2023/05/05 03:02:21;;;;;;;9.10;2.10;;;16.10;99.90;;;;;;4996767;28;20026;-84
2023/05/05 03:04:55;;;;;;;4.40;2.17;;;16.10;99.90;;;;;;4992337;28;20085;-84
2023/05/05 03:07:33;;;;;;;5.47;2.60;;;16.10;99.90;;;;;;4996226;28;20018;-84
2023/05/05 03:10:20;;;;;;;2.55;2.28;;;16.10;99.90;;;;;;5012153;28;20053;-84
2023/05/05 03:12:52;;;;;;;2.85;2.33;;;16.20;99.90;;;;;;4992167;28;20026;-84
2023/05/05 03:15:34;;;;;;;4.93;2.85;;;16.00;99.90;;;;;;4993105;28;20018;-84
2023/05/05 03:18:01;;;;;;;7.22;2.80;;;16.00;99.90;;;;;;5010757;28;20038;-85
2023/05/05 03:20:28;;;;;;;6.97;3.55;;;16.40;99.90;;;;;;5012234;28;20473;-84
2023/05/05 03:22:54;;;;;;;6.00;3.63;;;15.90;99.90;;;;;;5011966;28;20112;-84
2023/05/05 03:25:19;;;;;;;10.43;4.07;;;16.00;99.90;;;;;;5011756;28;20022;-84
2023/05/05 03:27:45;;;;;;;6.93;4.32;;;16.30;99.90;;;;;;5001095;28;20037;-84
2023/05/05 03:30:11;;;;;;;7.50;3.92;;;16.50;99.90;;;;;;4997257;28;20406;-84
2023/05/05 03:32:37;;;;;;;5.68;4.53;;;15.90;99.90;;;;;;5008157;28;20053;-84
2023/05/05 03:35:02;;;;;;;4.68;4.25;;;15.90;99.90;;;;;;5012609;28;20050;-84
2023/05/05 03:37:28;;;;;;;9.10;5.03;;;15.90;99.90;;;;;;4996930;28;20042;-83
2023/05/05 03:39:53;;;;;;;8.88;4.22;;;15.90;99.90;;;;;;5003739;28;20722;-84
2023/05/05 03:42:19;;;;;;;9.55;4.53;;;15.90;99.90;;;;;;5016191;28;20516;-83
2023/05/05 03:44:45;;;;;;;6.28;4.40;;;15.90;99.90;;;;;;5015909;28;20369;-84
2023/05/05 03:47:10;;;;;;;6.68;4.22;;;15.80;99.90;;;;;;5015542;28;20029;-84
2023/05/05 03:49:36;;;;;;;12.93;4.45;;;15.80;99.90;;;;;;5012153;28;20022;-84
2023/05/05 03:52:02;;;;;;;8.85;4.63;;;15.80;99.90;;;;;;5001494;28;20030;-84
2023/05/05 03:54:28;;;;;;;6.40;4.35;;;15.60;99.90;;;;;;4995881;28;20493;-84
2023/05/05 03:56:54;;;;;;;7.15;4.47;;;15.60;99.90;;;;;;4996343;28;20462;-84
2023/05/05 03:59:20;;;;;;;5.50;4.50;;;15.60;99.90;;;;;;4996372;28;20050;-84
2023/05/05 04:01:47;;;;;;;9.57;5.13;;;15.50;99.90;;;;;;4995092;28;20027;-84
2023/05/05 04:04:13;;;;;;;9.43;6.68;;;15.50;99.90;;;;;;4996164;28;20561;-84
2023/05/05 04:06:38;;;;;;;13.65;6.43;;;15.40;99.90;;;;;;4996019;28;20026;-84
2023/05/05 04:09:04;;;;;;;8.52;6.45;;;16.20;99.90;;;;;;5002879;28;20040;-84
2023/05/05 04:11:30;;;;;;;12.73;6.22;;;15.40;99.90;;;;;;5004742;28;20105;-84
2023/05/05 04:13:56;;;;;;;9.52;6.55;;;16.40;99.90;;;;;;5009267;28;20109;-84
2023/05/05 04:16:21;;;;;;;11.65;6.75;;;15.40;99.90;;;;;;5001470;28;20022;-84
2023/05/05 04:18:47;;;;;;;8.88;7.07;;;15.40;99.90;;;;;;4995923;28;20030;-84
2023/05/05 04:21:12;;;;;;;11.23;7.80;;;15.40;99.90;;;;;;4995448;28;20030;-84
2023/05/05 04:23:38;;;;;;;12.63;7.75;;;15.50;99.90;;;;;;5009786;28;20790;-84
2023/05/05 04:26:03;;;;;;;11.65;8.07;;;15.50;99.90;;;;;;5015724;28;20033;-84
2023/05/05 04:28:29;;;;;;;13.38;8.43;;;15.40;99.90;;;;;;5012497;28;20018;-84
2023/05/05 04:30:54;;;;;;;15.93;9.25;;;15.40;99.90;;;;;;5011872;28;20117;-84
2023/05/05 04:33:20;;;;;;;10.88;8.23;;;15.40;99.90;;;;;;5010814;28;20038;-84
2023/05/05 04:35:46;;;;;;;10.00;8.15;;;15.40;99.90;;;;;;4994996;28;20023;-84
2023/05/05 04:38:11;;;;;;;12.40;9.27;;;15.50;99.90;;;;;;5015023;28;20141;-84
2023/05/05 04:40:40;;;;;;;9.60;8.13;;;15.50;99.90;;;;;;5015026;28;20045;-84
2023/05/05 04:43:06;;;;;;;11.23;9.07;;;15.60;99.90;;;;;;5014320;28;20045;-84
2023/05/05 04:45:31;;;;;;;12.00;9.43;;;15.60;99.90;;;;;;5014392;28;20489;-84
2023/05/05 04:47:57;;;;;;;10.25;8.73;;;16.50;99.90;;;;;;5014918;28;20030;-84
2023/05/05 04:50:22;;;;;;;13.00;9.40;;;15.60;99.90;;;;;;5007472;28;20072;-84
2023/05/05 04:52:48;;;;;;;13.93;10.50;;;15.60;99.90;;;;;;5003172;28;20054;-84
2023/05/05 04:55:14;;;;;;;14.75;9.30;;;15.50;99.90;;;;;;5012352;28;20022;-84
2023/05/05 04:57:39;;;;;;;15.68;10.68;;;16.00;99.90;;;;;;4994300;28;20050;-84
2023/05/05 05:00:07;;;;;;;12.40;9.43;;;15.50;99.90;;;;;;4995026;28;20355;-83
2023/05/05 05:02:33;;;;;;;16.50;10.60;;;15.50;99.90;;;;;;4997089;28;20065;-85
2023/05/05 05:04:58;;;;;;;14.25;11.30;;;15.50;99.90;;;;;;5004769;28;20549;-85
2023/05/05 05:07:24;;;;;;;13.20;11.65;;;15.60;99.90;;;;;;5000962;28;20109;-85
2023/05/05 05:09:50;;;;;;;12.88;11.63;;;15.60;99.90;;;;;;5003997;28;20048;-85
2023/05/05 05:12:16;;;;;;;13.70;12.25;;;15.60;99.90;;;;;;5007379;28;20406;-85
2023/05/05 05:14:41;;;;;;;16.02;13.88;;;15.60;99.90;;;;;;5011563;28;20030;-84
2023/05/05 05:17:07;;;;;;;19.10;14.48;;;15.60;99.90;;;;;;5010456;28;20033;-85
2023/05/05 05:19:32;;;;;;;14.77;12.65;;;16.20;99.90;;;;;;5008337;28;20032;-85
2023/05/05 05:21:58;;;;;;;15.63;13.52;;;15.60;99.90;;;;;;5004991;28;20854;-85
2023/05/05 05:24:24;;;;;;;30.10;14.73;;;15.50;99.90;;;;;;4993377;28;20466;-84
2023/05/05 05:26:50;;;;;;;22.08;14.93;;;15.40;99.90;;;;;;5001921;28;20477;-85
2023/05/05 05:29:15;;;;;;;19.50;14.82;;;15.40;99.90;;;;;;5002016;28;20092;-84
2023/05/05 05:31:41;;;;;;;17.15;14.93;;;15.30;99.90;;;;;;5008356;28;20426;-84
2023/05/05 05:34:06;;;;;;;19.30;15.35;;;15.40;99.90;;;;;;4994220;28;20038;-84
2023/05/05 05:36:32;;;;;;;17.27;15.48;;;15.40;99.90;;;;;;5009989;28;20034;-85
2023/05/05 05:38:57;;;;;;;17.70;15.98;;;15.40;99.90;;;;;;5009229;28;20038;-84
2023/05/05 05:41:23;;;;;;;24.67;16.77;;;15.40;99.90;;;;;;5001644;28;20046;-84
2023/05/05 05:43:48;;;;;;;19.40;16.58;;;15.50;99.90;;;;;;4993544;28;20448;-84
2023/05/05 05:46:14;;;;;;;20.45;16.20;;;15.60;99.90;;;;;;5004178;28;20493;-84
2023/05/05 05:48:39;;;;;;;18.70;16.70;;;15.60;99.90;;;;;;5000036;28;20018;-85
2023/05/05 05:51:05;;;;;;;29.95;18.05;;;15.60;99.90;;;;;;5006339;28;20026;-85
2023/05/05 05:53:31;;;;;;;19.80;17.23;;;15.60;99.90;;;;;;5001075;28;20083;-85
2023/05/05 05:55:56;;;;;;;23.67;18.25;;;16.40;99.90;;;;;;5006604;28;20113;-85
2023/05/05 05:58:22;;;;;;;21.95;17.38;;;16.20;99.90;;;;;;5003432;28;20049;-85
2023/05/05 06:00:48;;;;;;;20.95;16.80;;;15.70;99.90;;;;;;5005285;28;20023;-85
2023/05/05 06:03:13;;;;;;;19.95;17.52;;;15.60;99.90;;;;;;4992516;28;20084;-86
2023/05/05 06:05:39;;;;;;;23.85;18.35;;;16.40;99.90;;;;;;4993696;28;20466;-85
2023/05/05 06:08:05;;;;;;;25.35;18.42;;;16.50;99.90;;;;;;4996903;28;20034;-85
2023/05/05 06:10:30;;;;;;;22.77;19.05;;;15.80;99.90;;;;;;5009343;28;20453;-83
2023/05/05 06:12:56;;;;;;;25.95;18.92;;;15.70;99.90;;;;;;5009999;28;20278;-84
2023/05/05 06:15:21;;;;;;;24.33;17.92;;;15.80;99.90;;;;;;5009842;28;20034;-84
2023/05/05 06:17:47;;;;;;;23.92;18.92;;;15.80;99.90;;;;;;5001684;28;20042;-84
2023/05/05 06:20:13;;;;;;;20.73;18.58;;;15.80;99.90;;;;;;5004347;28;20023;-84
2023/05/05 06:22:38;;;;;;;20.05;17.83;;;15.80;99.90;;;;;;5004412;28;20036;-84
2023/05/05 06:25:04;;;;;;;23.88;18.85;;;15.80;99.90;;;;;;5003891;28;20032;-84
2023/05/05 06:27:30;;;;;;;22.08;18.55;;;15.70;99.90;;;;;;4998376;28;20076;-84
2023/05/05 06:29:55;;;;;;;22.55;18.75;;;15.80;99.90;;;;;;4993088;28;20026;-84
2023/05/05 06:32:21;;;;;;;23.83;18.55;;;15.80;99.90;;;;;;4993670;28;20047;-84
2023/05/05 06:34:47;;;;;;;21.27;18.10;;;15.90;99.90;;;;;;4999639;28;20027;-85
2023/05/05 06:37:13;;;;;;;20.58;16.92;;;15.90;99.90;;;;;;5001628;28;20073;-83
2023/05/05 06:39:38;;;;;;;19.08;16.33;;;15.90;99.90;;;;;;4993938;28;20081;-85
2023/05/05 06:42:04;;;;;;;18.88;16.55;;;15.90;99.90;;;;;;4994023;28;20089;-83
2023/05/05 06:44:30;;;;;;;17.73;15.85;;;16.00;99.90;;;;;;4998967;28;20018;-83
2023/05/05 06:46:55;;;;;;;19.27;16.00;;;16.30;99.90;;;;;;4998940;28;20026;-82
2023/05/05 06:49:21;;;;;;;19.02;16.13;;;16.00;99.90;;;;;;5000156;28;20018;-83
2023/05/05 06:51:46;;;;;;;23.90;17.58;;;16.10;99.90;;;;;;5003821;28;20489;-83
2023/05/05 06:54:12;;;;;;;18.45;15.50;;;16.00;99.90;;;;;;5002252;28;20022;-82
2023/05/05 06:56:38;;;;;;;21.15;17.90;;;16.30;99.90;;;;;;5001845;28;20026;-83
2023/05/05 06:59:03;;;;;;;21.30;17.27;;;16.10;99.90;;;;;;5003608;28;20038;-83
2023/05/05 07:01:29;;;;;;;17.88;15.88;;;16.00;99.90;;;;;;4992479;28;20030;-82
2023/05/05 07:03:54;;;;;;;17.60;15.00;;;16.10;99.90;;;;;;4991998;28;20019;-83
2023/05/05 07:06:20;;;;;;;18.17;14.07;;;16.60;99.90;;;;;;4992319;28;20048;-83
2023/05/05 07:08:46;;;;;;;18.88;15.43;;;16.10;99.90;;;;;;5000063;28;20119;-83
2023/05/05 07:11:11;;;;;;;17.92;14.32;;;16.10;99.90;;;;;;4998873;28;20023;-83
2023/05/05 07:13:37;;;;;;;15.65;13.90;;;16.10;99.90;;;;;;4992002;28;20113;-83
2023/05/05 07:16:02;;;;;;;15.65;13.95;;;16.40;99.90;;;;;;4992627;28;20027;-83
2023/05/05 07:18:28;;;;;;;17.25;14.27;;;16.10;99.90;;;;;;4996782;28;20049;-86
2023/05/05 07:20:53;;;;;;;14.77;13.27;;;16.10;99.90;;;;;;5003315;28;20026;-87
2023/05/05 07:23:19;;;;;;;18.70;13.82;;;16.20;99.90;;;;;;5008951;28;20108;-85
2023/05/05 07:25:45;;;;;;;20.65;16.17;;;16.20;99.90;;;;;;5009764;28;20018;-85
2023/05/05 07:28:10;;;;;;;15.93;14.27;;;16.20;99.90;;;;;;5011945;28;20032;-84
2023/05/05 07:30:36;;;;;;;15.23;13.70;;;16.20;99.90;;;;;;5011975;28;20025;-86
2023/05/05 07:33:01;;;;;;;17.17;12.98;;;16.20;99.90;;;;;;5012242;28;20049;-85
2023/05/05 07:35:27;;;;;;;12.70;11.27;;;16.30;99.90;;;;;;5012135;28;20061;-86
2023/05/05 07:37:53;;;;;;;15.70;12.13;;;16.30;99.90;;;;;;5011083;28;20089;-85
2023/05/05 07:40:18;;;;;;;15.68;10.50;;;16.30;99.90;;;;;;5008821;28;20076;-86
2023/05/05 07:42:46;;;;;;;19.23;14.55;;;16.30;99.90;;;;;;4996900;28;20050;-87
2023/05/05 07:45:11;;;;;;;14.80;10.68;;;16.40;99.90;;;;;;5009774;28;20386;-85
2023/05/05 07:47:37;;;;;;;10.05;9.07;;;16.40;99.90;;;;;;5002070;28;20031;-85
2023/05/05 07:50:03;;;;;;;13.18;9.02;;;16.40;99.90;;;;;;4987826;28;20026;-85
2023/05/05 07:52:28;;;;;;;15.27;11.07;;;16.40;99.90;;;;;;4987528;28;20033;-86
2023/05/05 07:54:54;;;;;;;13.60;10.63;;;16.40;99.90;;;;;;4988390;28;20022;-85
2023/05/05 07:57:19;;;;;;;11.45;10.25;;;16.40;99.90;;;;;;5006700;28;20168;-85
2023/05/05 07:59:45;;;;;;;11.43;9.60;;;16.50;99.90;;;;;;5004871;28;20022;-85
2023/05/05 08:02:14;;;;;;;15.60;10.25;;;16.50;99.90;;;;;;5002490;28;20027;-85
2023/05/05 08:04:40;;;;;;;12.13;9.02;;;16.50;99.90;;;;;;5001597;28;20026;-85
2023/05/05 08:07:07;;;;;;;14.68;9.85;;;16.50;99.90;;;;;;5010831;28;20026;-85
2023/05/05 08:09:33;;;;;;;10.65;8.70;;;16.60;99.90;;;;;;4994938;28;20042;-83
2023/05/05 08:12:00;;;;;;;12.57;9.32;;;16.50;99.90;;;;;;4993837;28;20026;-84
2023/05/05 08:14:25;;;;;;;16.67;9.05;;;16.60;99.90;;;;;;5005159;28;20034;-84
2023/05/05 08:16:51;;;;;;;12.75;9.57;;;16.70;99.90;;;;;;4998525;28;20041;-86
2023/05/05 08:19:16;;;;;;;11.18;8.68;;;16.70;99.90;;;;;;4992428;28;20501;-88
2023/05/05 08:21:42;;;;;;;10.75;8.18;;;16.60;99.90;;;;;;5004480;28;20030;-87
2023/05/05 08:24:07;;;;;;;8.68;7.75;;;16.70;99.90;;;;;;4995164;28;20417;-87
2023/05/05 08:26:33;;;;;;;12.02;8.07;;;16.70;99.90;;;;;;4993707;28;20026;-88
2023/05/05 08:29:00;;;;;;;7.65;6.95;;;16.70;99.90;;;;;;4991831;28;20100;-87
2023/05/05 08:31:27;;;;;;;8.55;6.85;;;16.70;99.90;;;;;;4992135;28;20032;-88
2023/05/05 08:33:53;;;;;;;9.38;7.25;;;16.70;99.90;;;;;;4993997;28;20027;-86
2023/05/05 08:36:18;;;;;;;11.80;6.00;;;16.80;99.90;;;;;;4993819;28;20041;-87
2023/05/05 08:38:44;;;;;;;10.25;7.03;;;16.70;99.90;;;;;;4998121;28;20543;-87
2023/05/05 08:41:13;;;;;;;11.35;6.53;;;16.80;99.90;;;;;;4993724;28;20038;-87
2023/05/05 08:43:38;;;;;;;12.48;8.13;;;16.80;99.90;;;;;;4999254;28;20074;-87
2023/05/05 08:46:05;;;;;;;11.45;8.15;;;16.80;99.90;;;;;;4990997;28;20065;-84
2023/05/05 08:48:34;;;;;;;14.65;9.10;;;16.80;99.90;;;;;;5000008;28;20394;-85
2023/05/05 08:51:03;;;;;;;7.88;7.07;;;16.80;99.90;;;;;;5010429;28;20080;-85
2023/05/05 08:53:52;;;;;;;11.13;8.63;;;17.30;99.90;;;;;;5004367;28;20019;-87
2023/05/05 08:56:20;;;;;;;15.55;9.07;;;16.80;99.90;;;;;;5011223;28;20034;-87
2023/05/05 08:58:47;;;;;;;9.02;8.13;;;16.80;99.90;;;;;;5004261;28;20046;-87
2023/05/05 09:01:13;;;;;;;9.27;4.05;;;16.80;99.90;;;;;;5004288;28;20030;-86
2023/05/05 09:03:39;;;;;;;5.22;3.40;;;16.70;99.90;;;;;;4995786;28;20019;-86
2023/05/05 09:06:05;;;;;;;4.80;3.15;;;16.70;99.90;;;;;;5004144;28;20045;-86
2023/05/05 09:08:32;;;;;;;5.55;3.60;;;16.60;99.90;;;;;;5010569;28;20026;-85
2023/05/05 09:10:59;;;;;;;5.47;3.72;;;16.60;99.90;;;;;;5003453;28;20033;-87
2023/05/05 09:13:25;;;;;;;12.10;4.05;;;16.60;99.90;;;;;;5003770;28;20097;-85
2023/05/05 09:15:50;;;;;;;8.45;4.38;;;16.50;99.90;;;;;;4993789;28;20072;-88
2023/05/05 09:18:16;;;;;;;7.13;4.70;;;16.40;99.90;;;;;;4996463;28;20065;-87
2023/05/05 09:20:41;;;;;;;5.72;4.68;;;16.50;99.90;;;;;;5004659;28;20112;-85
2023/05/05 09:23:15;;;;;;;8.02;5.90;;;16.40;99.90;;;;;;5005426;28;20117;-85
2023/05/05 09:25:43;;;;;;;10.65;5.57;;;16.50;99.90;;;;;;5006778;28;20424;-86
2023/05/05 09:28:17;;;;;;;8.65;5.63;;;16.40;99.90;;;;;;5003103;28;20542;-86
2023/05/05 09:30:45;;;;;;;7.55;5.78;;;16.40;99.90;;;;;;5012399;28;20040;-87
2023/05/05 09:33:11;;;;;;;8.60;5.40;;;16.40;99.90;;;;;;5012963;28;20463;-86
2023/05/05 09:35:54;;;;;;;12.93;6.63;;;16.40;99.90;;;;;;5012256;28;20041;-86
2023/05/05 09:38:22;;;;;;;6.85;5.65;;;16.40;99.90;;;;;;5010623;28;20030;-86
2023/05/05 09:40:52;;;;;;;11.85;5.78;;;16.30;99.90;;;;;;5010131;28;20543;-87
2023/05/05 09:43:20;;;;;;;6.63;5.20;;;16.30;99.90;;;;;;4998386;28;20046;-86
2023/05/05 09:45:50;;;;;;;6.18;5.40;;;16.40;99.90;;;;;;5008776;28;20076;-86
2023/05/05 09:48:25;;;;;;;7.25;5.22;;;16.40;99.90;;;;;;4992314;28;20029;-86
2023/05/05 09:50:52;;;;;;;7.25;4.55;;;16.40;99.90;;;;;;4992113;28;20229;-85
2023/05/05 09:53:17;;;;;;;8.48;6.68;;;16.40;99.90;;;;;;4991586;28;20034;-88
2023/05/05 09:55:57;;;;;;;8.68;6.15;;;16.40;99.90;;;;;;5009099;28;20026;-83
2023/05/05 09:58:28;;;;;;;10.65;6.20;;;16.40;99.90;;;;;;5010917;28;20044;-84
2023/05/05 10:00:54;;;;;;;12.02;6.35;;;16.30;99.90;;;;;;5009780;28;20029;-84
2023/05/05 10:03:21;;;;;;;7.50;6.82;;;16.30;99.90;;;;;;5010329;28;20049;-83
2023/05/05 10:05:57;;;;;;;11.20;6.25;;;16.30;99.90;;;;;;5009815;28;20084;-83
2023/05/05 10:08:25;;;;;;;10.38;7.60;;;16.30;99.90;;;;;;5010450;28;20109;-84
2023/05/05 10:11:03;;;;;;;11.30;8.45;;;16.30;99.90;;;;;;5009438;28;20025;-84
2023/05/05 10:13:31;;;;;;;11.45;9.20;;;16.30;99.90;;;;;;5008299;28;20476;-84
2023/05/05 10:15:58;;;;;;;13.52;8.77;;;16.30;99.90;;;;;;5011181;28;20025;-84
2023/05/05 10:18:27;;;;;;;12.10;9.75;;;16.30;99.90;;;;;;5012148;28;20064;-83
2023/05/05 10:21:01;;;;;;;12.82;11.25;;;16.30;99.90;;;;;;5009270;28;20433;-84
2023/05/05 10:23:38;;;;;;;11.15;10.05;;;16.30;99.90;;;;;;5009826;28;20030;-83
2023/05/05 10:26:06;;;;;;;13.50;9.75;;;16.30;99.90;;;;;;5011047;28;20378;-84
2023/05/05 10:28:46;;;;;;;11.82;9.02;;;16.30;99.90;;;;;;5012200;28;20028;-84
2023/05/05 10:31:19;;;;;;;10.30;7.15;;;16.20;99.90;;;;;;5013077;28;20030;-84
2023/05/05 10:33:54;;;;;;;4.28;3.88;;;16.30;99.90;;;;;;5011926;28;20057;-84
2023/05/05 10:36:20;;;;;;;3.55;3.22;;;16.30;99.90;;;;;;5013212;28;20033;-84
2023/05/05 10:38:48;;;;;;;3.63;2.33;;;16.30;99.90;;;;;;5012997;28;20040;-84
2023/05/05 10:41:14;;;;;;;2.75;2.47;;;16.30;99.90;;;;;;5011936;28;20470;-84
2023/05/05 10:43:41;;;;;;;4.05;2.30;;;16.30;99.90;;;;;;5012569;28;20105;-83
2023/05/05 10:46:07;;;;;;;4.50;3.50;;;16.30;99.90;;;;;;5012856;28;20041;-84
2023/05/05 10:48:47;;;;;;;3.63;2.53;;;16.20;99.90;;;;;;5012162;28;20029;-84
2023/05/05 10:51:50;;;;;;;3.50;2.30;;;16.20;99.90;;;;;;5013007;28;20026;-84
2023/05/05 10:54:26;;;;;;;4.90;2.83;;;16.20;99.90;;;;;;4933226;29;20055;-84
2023/05/05 10:56:52;;;;;;;5.75;2.80;;;16.20;99.90;;;;;;4932096;29;20047;-84
2023/05/05 10:59:38;;;;;;;2.70;2.50;;;16.20;99.90;;;;;;4975265;28;20030;-84
2023/05/05 11:02:26;;;;;;;3.22;2.53;;;16.20;99.90;;;;;;5012281;28;20030;-83
2023/05/05 11:05:09;;;;;;;4.13;2.80;;;16.20;99.90;;;;;;5012627;28;20053;-84
2023/05/05 11:07:36;;;;;;;14.13;2.90;;;16.20;99.90;;;;;;5012560;28;20417;-83
2023/05/05 11:10:06;;;;;;;6.47;2.70;;;16.10;99.90;;;;;;5011852;28;20466;-84
2023/05/05 11:13:01;;;;;;;8.27;3.17;;;16.10;99.90;;;;;;5012726;28;20030;-83
2023/05/05 11:15:26;;;;;;;6.95;2.60;;;16.10;99.90;;;;;;5002805;28;20127;-84
2023/05/05 11:17:57;;;;;;;4.07;2.17;;;16.20;99.90;;;;;;5011712;28;20422;-83
2023/05/05 11:20:34;;;;;;;4.88;2.38;;;16.10;99.90;;;;;;5012649;28;20376;-83
2023/05/05 11:23:03;;;;;;;2.67;1.95;;;16.10;99.90;;;;;;5012031;28;20034;-84
2023/05/05 11:25:40;;;;;;;6.53;2.08;;;16.10;99.90;;;;;;5012651;28;20106;-83
2023/05/05 11:28:10;;;;;;;5.13;3.95;;;16.10;99.90;;;;;;5012674;28;20030;-84
2023/05/05 11:30:57;;;;;;;10.10;6.17;;;16.10;99.90;;;;;;5011595;28;20022;-83
2023/05/05 11:33:27;;;;;;;4.93;2.83;;;16.00;99.90;;;;;;5012656;28;20050;-83
2023/05/05 11:35:59;;;;;;;6.82;2.80;;;16.10;99.90;;;;;;5012030;28;20401;-84
2023/05/05 11:38:55;;;;;;;5.63;3.13;;;16.10;99.90;;;;;;5011444;28;20469;-84
2023/05/05 11:41:32;;;;;;;5.68;2.80;;;16.10;99.90;;;;;;5012338;28;20026;-83
2023/05/05 11:44:19;;;;;;;7.22;3.35;;;16.00;99.90;;;;;;5012143;28;20054;-83
2023/05/05 11:46:50;;;;;;;7.07;3.90;;;16.00;99.90;;;;;;5011705;28;20105;-83
2023/05/05 11:49:45;;;;;;;11.00;5.53;;;16.00;99.90;;;;;;5012520;28;20104;-83
2023/05/05 11:52:13;;;;;;;9.75;5.15;;;16.00;99.90;;;;;;4994338;28;20417;-83
2023/05/05 11:54:46;;;;;;;7.10;5.30;;;16.00;99.90;;;;;;5012269;28;20026;-83
2023/05/05 11:57:13;;;;;;;12.13;5.55;;;15.80;99.90;;;;;;5015882;28;20038;-83
2023/05/05 11:59:52;;;;;;;8.20;5.57;;;15.80;99.90;;;;;;5014816;28;20043;-83
2023/05/05 12:02:18;;;;;;;7.38;5.30;;;15.70;99.90;;;;;;5016340;28;20025;-84
2023/05/05 12:04:45;;;;;;;8.55;5.25;;;15.80;99.90;;;;;;5015568;28;20025;-82
2023/05/05 12:07:18;;;;;;;9.38;5.93;;;15.80;99.90;;;;;;5015244;28;20148;-84
2023/05/05 12:09:46;;;;;;;6.28;5.03;;;15.80;99.90;;;;;;5015455;28;20501;-83
2023/05/05 12:12:11;;;;;;;5.90;5.40;;;15.80;99.90;;;;;;5015070;28;20030;-83
2023/05/05 12:14:57;;;;;;;9.27;6.25;;;15.90;99.90;;;;;;5015651;28;20041;-83
2023/05/05 12:17:23;;;;;;;9.48;6.78;;;15.80;99.90;;;;;;5015167;28;20073;-84
2023/05/05 12:19:51;;;;;;;8.23;6.45;;;15.80;99.90;;;;;;5014563;28;20593;-83
2023/05/05 12:22:24;;;;;;;7.45;6.65;;;15.80;99.90;;;;;;5015685;28;20026;-83
2023/05/05 12:24:57;;;;;;;8.27;6.30;;;15.80;99.90;;;;;;5015184;28;20108;-82
2023/05/05 12:27:25;;;;;;;10.85;7.25;;;15.60;99.90;;;;;;5014762;28;20042;-84
2023/05/05 12:29:51;;;;;;;10.95;7.68;;;15.60;99.90;;;;;;5015508;28;20034;-83
2023/05/05 12:32:26;;;;;;;10.07;7.45;;;15.50;99.90;;;;;;5015251;28;20040;-83
2023/05/05 12:34:55;;;;;;;12.52;8.35;;;15.40;99.90;;;;;;5014359;28;20568;-83
2023/05/05 12:37:21;;;;;;;6.38;5.78;;;15.40;99.90;;;;;;5015342;28;20068;-84
2023/05/05 12:39:48;;;;;;;8.55;5.20;;;15.40;99.90;;;;;;5014994;28;20045;-83
2023/05/05 12:42:13;;;;;;;4.05;3.60;;;15.30;99.90;;;;;;5014173;28;20133;-83
2023/05/05 12:44:40;;;;;;;4.80;3.55;;;15.40;99.90;;;;;;5014850;28;20117;-83
2023/05/05 12:47:06;;;;;;;4.20;2.95;;;15.40;99.90;;;;;;5015186;28;20386;-83